sensor_id;sensor_type;location;lat;lon;timestamp;temperature;humidity
8914;DHT22;4492;48.736;9.092;2023-03-24T00:02:07;11.90;99.90
8914;DHT22;4492;48.736;9.092;2023-03-24T00:04:33;11.90;99.90
8914;DHT22;4492;48.736;9.092;2023-03-24T00:07:00;11.80;99.90
8914;DHT22;4492;48.736;9.092;2023-03-24T00:09:28;11.70;99.90
8914;DHT22;4492;48.736;9.092;2023-03-24T00:11:57;11.60;99.90
8914;DHT22;4492;48.736;9.092;2023-03-24T00:14:23;11.60;99.90
8914;DHT22;4492;48.736;9.092;2023-03-24T00:16:49;11.50;99.90
8914;DHT22;4492;48.736;9.092;2023-03-24T00:19:15;11.50;99.90
8914;DHT22;4492;48.736;9.092;2023-03-24T00:21:42;11.40;99.90
8914;DHT22;4492;48.736;9.092;2023-03-24T00:24:09;11.40;99.90
8914;DHT22;4492;48.736;9.092;2023-03-24T00:26:37;11.40;99.90
8914;DHT22;4492;48.736;9.092;2023-03-24T00:29:04;11.30;99.90
8914;DHT22;4492;48.736;9.092;2023-03-24T00:31:30;11.30;99.90
8914;DHT22;4492;48.736;9.092;2023-03-24T00:33:55;11.30;99.90
8914;DHT22;4492;48.736;9.092;2023-03-24T00:36:23;11.20;99.90
8914;DHT22;4492;48.736;9.092;2023-03-24T00:38:50;11.20;99.90
8914;DHT22;4492;48.736;9.092;2023-03-24T00:41:16;11.20;99.90
8914;DHT22;4492;48.736;9.092;2023-03-24T00:43:46;11.20;99.90
8914;DHT22;4492;48.736;9.092;2023-03-24T00:46:13;11.30;99.90
8914;DHT22;4492;48.736;9.092;2023-03-24T00:48:55;11.30;99.90
8914;DHT22;4492;48.736;9.092;2023-03-24T00:51:22;11.30;99.90
8914;DHT22;4492;48.736;9.092;2023-03-24T00:53:48;11.60;99.90
8914;DHT22;4492;48.736;9.092;2023-03-24T00:56:13;11.30;99.90
8914;DHT22;4492;48.736;9.092;2023-03-24T00:58:39;11.40;99.90
8914;DHT22;4492;48.736;9.092;2023-03-24T01:01:05;11.50;99.90
8914;DHT22;4492;48.736;9.092;2023-03-24T01:03:31;11.40;99.90
8914;DHT22;4492;48.736;9.092;2023-03-24T01:06:00;11.50;99.90
8914;DHT22;4492;48.736;9.092;2023-03-24T01:08:26;11.50;99.90
8914;DHT22;4492;48.736;9.092;2023-03-24T01:10:52;11.50;99.90
8914;DHT22;4492;48.736;9.092;2023-03-24T01:13:20;11.60;99.90
8914;DHT22;4492;48.736;9.092;2023-03-24T01:15:46;11.60;99.90
8914;DHT22;4492;48.736;9.092;2023-03-24T01:18:13;11.60;99.90
8914;DHT22;4492;48.736;9.092;2023-03-24T01:20:39;11.50;99.90
8914;DHT22;4492;48.736;9.092;2023-03-24T01:23:06;11.50;99.90
8914;DHT22;4492;48.736;9.092;2023-03-24T01:25:34;11.50;99.90
8914;DHT22;4492;48.736;9.092;2023-03-24T01:28:03;11.50;99.90
8914;DHT22;4492;48.736;9.092;2023-03-24T01:30:29;11.40;99.90
8914;DHT22;4492;48.736;9.092;2023-03-24T01:32:55;11.40;99.90
8914;DHT22;4492;48.736;9.092;2023-03-24T01:35:22;11.40;99.90
8914;DHT22;4492;48.736;9.092;2023-03-24T01:37:50;11.40;99.90
8914;DHT22;4492;48.736;9.092;2023-03-24T01:40:24;11.40;99.90
8914;DHT22;4492;48.736;9.092;2023-03-24T01:42:50;11.40;99.90
8914;DHT22;4492;48.736;9.092;2023-03-24T01:45:40;11.40;99.90
8914;DHT22;4492;48.736;9.092;2023-03-24T01:48:40;11.40;99.90
8914;DHT22;4492;48.736;9.092;2023-03-24T01:51:11;11.40;99.90
8914;DHT22;4492;48.736;9.092;2023-03-24T01:53:43;11.30;99.90
8914;DHT22;4492;48.736;9.092;2023-03-24T01:56:09;11.30;99.90
8914;DHT22;4492;48.736;9.092;2023-03-24T01:58:38;11.30;99.90
8914;DHT22;4492;48.736;9.092;2023-03-24T02:01:05;11.30;99.90
8914;DHT22;4492;48.736;9.092;2023-03-24T02:03:32;11.30;99.90
8914;DHT22;4492;48.736;9.092;2023-03-24T02:06:01;11.40;99.90
8914;DHT22;4492;48.736;9.092;2023-03-24T02:08:38;11.40;99.90
8914;DHT22;4492;48.736;9.092;2023-03-24T02:11:05;11.40;99.90
8914;DHT22;4492;48.736;9.092;2023-03-24T02:13:30;11.50;99.90
8914;DHT22;4492;48.736;9.092;2023-03-24T02:21:42;11.70;99.90
8914;DHT22;4492;48.736;9.092;2023-03-24T02:24:29;11.80;99.90
8914;DHT22;4492;48.736;9.092;2023-03-24T02:27:32;11.80;99.90
8914;DHT22;4492;48.736;9.092;2023-03-24T02:30:22;11.90;99.90
8914;DHT22;4492;48.736;9.092;2023-03-24T02:41:31;11.90;99.90
8914;DHT22;4492;48.736;9.092;2023-03-24T02:44:09;11.90;99.90
8914;DHT22;4492;48.736;9.092;2023-03-24T02:46:48;11.90;99.90
8914;DHT22;4492;48.736;9.092;2023-03-24T02:52:16;11.90;99.90
8914;DHT22;4492;48.736;9.092;2023-03-24T02:54:50;11.90;99.90
8914;DHT22;4492;48.736;9.092;2023-03-24T02:57:33;12.00;99.90
8914;DHT22;4492;48.736;9.092;2023-03-24T03:00:07;12.00;99.90
8914;DHT22;4492;48.736;9.092;2023-03-24T03:02:38;12.10;99.90
8914;DHT22;4492;48.736;9.092;2023-03-24T03:05:13;12.10;99.90
8914;DHT22;4492;48.736;9.092;2023-03-24T03:07:42;12.10;99.90
8914;DHT22;4492;48.736;9.092;2023-03-24T03:10:13;12.20;99.90
8914;DHT22;4492;48.736;9.092;2023-03-24T03:12:41;12.20;99.90
8914;DHT22;4492;48.736;9.092;2023-03-24T03:15:31;12.20;99.90
8914;DHT22;4492;48.736;9.092;2023-03-24T03:20:41;12.30;99.90
8914;DHT22;4492;48.736;9.092;2023-03-24T03:23:18;12.30;99.90
8914;DHT22;4492;48.736;9.092;2023-03-24T03:25:47;12.30;99.90
8914;DHT22;4492;48.736;9.092;2023-03-24T03:28:19;12.30;99.90
8914;DHT22;4492;48.736;9.092;2023-03-24T03:30:58;12.40;99.90
8914;DHT22;4492;48.736;9.092;2023-03-24T03:33:32;12.40;99.90
8914;DHT22;4492;48.736;9.092;2023-03-24T03:36:25;12.30;99.90
8914;DHT22;4492;48.736;9.092;2023-03-24T03:39:05;12.30;99.90
8914;DHT22;4492;48.736;9.092;2023-03-24T03:41:32;12.30;99.90
8914;DHT22;4492;48.736;9.092;2023-03-24T03:43:59;12.30;99.90
8914;DHT22;4492;48.736;9.092;2023-03-24T03:46:25;12.30;99.90
8914;DHT22;4492;48.736;9.092;2023-03-24T03:48:51;12.20;99.90
8914;DHT22;4492;48.736;9.092;2023-03-24T03:51:17;12.20;99.90
8914;DHT22;4492;48.736;9.092;2023-03-24T03:53:47;12.20;99.90
8914;DHT22;4492;48.736;9.092;2023-03-24T03:56:18;12.30;99.90
8914;DHT22;4492;48.736;9.092;2023-03-24T03:58:45;12.30;99.90
8914;DHT22;4492;48.736;9.092;2023-03-24T04:01:17;12.40;99.90
8914;DHT22;4492;48.736;9.092;2023-03-24T04:14:46;12.50;99.90
8914;DHT22;4492;48.736;9.092;2023-03-24T04:20:13;12.50;99.90
8914;DHT22;4492;48.736;9.092;2023-03-24T04:23:17;12.60;99.90
8914;DHT22;4492;48.736;9.092;2023-03-24T04:26:23;12.60;99.90
8914;DHT22;4492;48.736;9.092;2023-03-24T04:29:03;12.60;99.90
8914;DHT22;4492;48.736;9.092;2023-03-24T04:31:47;12.60;99.90
8914;DHT22;4492;48.736;9.092;2023-03-24T04:34:35;12.60;99.90
8914;DHT22;4492;48.736;9.092;2023-03-24T04:37:10;12.60;99.90
8914;DHT22;4492;48.736;9.092;2023-03-24T04:39:40;12.70;99.90
8914;DHT22;4492;48.736;9.092;2023-03-24T04:42:12;12.60;99.90
8914;DHT22;4492;48.736;9.092;2023-03-24T04:44:39;12.60;99.90
8914;DHT22;4492;48.736;9.092;2023-03-24T04:47:07;12.60;99.90
8914;DHT22;4492;48.736;9.092;2023-03-24T04:49:38;12.60;99.90
8914;DHT22;4492;48.736;9.092;2023-03-24T04:52:05;12.60;99.90
8914;DHT22;4492;48.736;9.092;2023-03-24T04:54:32;12.70;99.90
8914;DHT22;4492;48.736;9.092;2023-03-24T04:56:59;12.70;99.90
8914;DHT22;4492;48.736;9.092;2023-03-24T04:59:27;12.70;99.90
8914;DHT22;4492;48.736;9.092;2023-03-24T05:01:52;12.70;99.90
8914;DHT22;4492;48.736;9.092;2023-03-24T05:04:20;12.80;99.90
8914;DHT22;4492;48.736;9.092;2023-03-24T05:06:46;12.80;99.90
8914;DHT22;4492;48.736;9.092;2023-03-24T05:09:14;12.80;99.90
8914;DHT22;4492;48.736;9.092;2023-03-24T05:11:40;12.90;99.90
8914;DHT22;4492;48.736;9.092;2023-03-24T05:14:05;12.90;99.90
8914;DHT22;4492;48.736;9.092;2023-03-24T05:16:31;12.90;99.90
8914;DHT22;4492;48.736;9.092;2023-03-24T05:18:56;13.00;99.90
8914;DHT22;4492;48.736;9.092;2023-03-24T05:21:22;13.00;99.90
8914;DHT22;4492;48.736;9.092;2023-03-24T05:23:47;13.00;99.90
8914;DHT22;4492;48.736;9.092;2023-03-24T05:26:13;12.90;99.90
8914;DHT22;4492;48.736;9.092;2023-03-24T05:28:39;12.90;99.90
8914;DHT22;4492;48.736;9.092;2023-03-24T05:31:04;12.90;99.90
8914;DHT22;4492;48.736;9.092;2023-03-24T05:33:30;12.90;99.90
8914;DHT22;4492;48.736;9.092;2023-03-24T05:35:55;12.80;99.90
8914;DHT22;4492;48.736;9.092;2023-03-24T05:38:21;12.70;99.90
8914;DHT22;4492;48.736;9.092;2023-03-24T05:40:47;12.60;99.90
8914;DHT22;4492;48.736;9.092;2023-03-24T05:43:12;12.50;99.90
8914;DHT22;4492;48.736;9.092;2023-03-24T05:45:38;12.40;99.90
8914;DHT22;4492;48.736;9.092;2023-03-24T05:48:04;12.40;99.90
8914;DHT22;4492;48.736;9.092;2023-03-24T05:50:30;12.30;99.90
8914;DHT22;4492;48.736;9.092;2023-03-24T05:52:56;12.20;99.90
8914;DHT22;4492;48.736;9.092;2023-03-24T05:55:21;12.20;99.90
8914;DHT22;4492;48.736;9.092;2023-03-24T05:57:47;12.10;99.90
8914;DHT22;4492;48.736;9.092;2023-03-24T06:00:13;12.10;99.90
8914;DHT22;4492;48.736;9.092;2023-03-24T06:02:43;12.00;99.90
8914;DHT22;4492;48.736;9.092;2023-03-24T06:05:09;11.90;99.90
8914;DHT22;4492;48.736;9.092;2023-03-24T06:07:39;11.90;99.90
8914;DHT22;4492;48.736;9.092;2023-03-24T06:10:07;11.80;99.90
8914;DHT22;4492;48.736;9.092;2023-03-24T06:12:34;11.80;99.90
8914;DHT22;4492;48.736;9.092;2023-03-24T06:15:00;11.70;99.90
8914;DHT22;4492;48.736;9.092;2023-03-24T06:17:27;11.70;99.90
8914;DHT22;4492;48.736;9.092;2023-03-24T06:19:53;11.70;99.90
8914;DHT22;4492;48.736;9.092;2023-03-24T06:22:29;11.70;99.90
8914;DHT22;4492;48.736;9.092;2023-03-24T06:24:55;11.70;99.90
8914;DHT22;4492;48.736;9.092;2023-03-24T06:27:21;11.70;99.90
8914;DHT22;4492;48.736;9.092;2023-03-24T06:29:50;11.70;99.90
8914;DHT22;4492;48.736;9.092;2023-03-24T06:32:18;11.70;99.90
8914;DHT22;4492;48.736;9.092;2023-03-24T06:34:44;11.70;99.90
8914;DHT22;4492;48.736;9.092;2023-03-24T06:37:09;11.70;99.90
8914;DHT22;4492;48.736;9.092;2023-03-24T06:39:35;11.70;99.90
8914;DHT22;4492;48.736;9.092;2023-03-24T06:42:01;11.80;99.90
8914;DHT22;4492;48.736;9.092;2023-03-24T06:44:26;11.90;99.90
8914;DHT22;4492;48.736;9.092;2023-03-24T06:46:52;12.00;99.90
8914;DHT22;4492;48.736;9.092;2023-03-24T06:49:17;12.10;99.90
8914;DHT22;4492;48.736;9.092;2023-03-24T06:51:43;12.20;99.90
8914;DHT22;4492;48.736;9.092;2023-03-24T06:54:09;12.40;99.90
8914;DHT22;4492;48.736;9.092;2023-03-24T06:56:34;12.40;99.90
8914;DHT22;4492;48.736;9.092;2023-03-24T06:59:00;12.30;99.90
8914;DHT22;4492;48.736;9.092;2023-03-24T07:01:26;12.30;99.90
8914;DHT22;4492;48.736;9.092;2023-03-24T07:03:51;12.20;99.90
8914;DHT22;4492;48.736;9.092;2023-03-24T07:06:18;12.20;99.90
8914;DHT22;4492;48.736;9.092;2023-03-24T07:08:44;12.20;99.90
8914;DHT22;4492;48.736;9.092;2023-03-24T07:11:10;12.10;99.90
8914;DHT22;4492;48.736;9.092;2023-03-24T07:13:36;12.00;99.90
8914;DHT22;4492;48.736;9.092;2023-03-24T07:16:02;12.00;99.90
8914;DHT22;4492;48.736;9.092;2023-03-24T07:18:28;11.90;99.90
8914;DHT22;4492;48.736;9.092;2023-03-24T07:20:53;11.80;99.90
8914;DHT22;4492;48.736;9.092;2023-03-24T07:23:19;11.70;99.90
8914;DHT22;4492;48.736;9.092;2023-03-24T07:25:45;11.60;99.90
8914;DHT22;4492;48.736;9.092;2023-03-24T07:28:11;11.60;99.90
8914;DHT22;4492;48.736;9.092;2023-03-24T07:30:36;11.50;99.90
8914;DHT22;4492;48.736;9.092;2023-03-24T07:33:03;11.50;99.90
8914;DHT22;4492;48.736;9.092;2023-03-24T07:35:30;11.50;99.90
8914;DHT22;4492;48.736;9.092;2023-03-24T07:37:59;11.40;99.90
8914;DHT22;4492;48.736;9.092;2023-03-24T07:40:24;11.40;99.90
8914;DHT22;4492;48.736;9.092;2023-03-24T07:42:50;11.40;99.90
8914;DHT22;4492;48.736;9.092;2023-03-24T07:45:16;11.40;99.90
8914;DHT22;4492;48.736;9.092;2023-03-24T07:47:43;11.30;99.90
8914;DHT22;4492;48.736;9.092;2023-03-24T07:50:10;11.30;99.90
8914;DHT22;4492;48.736;9.092;2023-03-24T07:52:40;11.30;99.90
8914;DHT22;4492;48.736;9.092;2023-03-24T07:55:09;11.30;99.90
8914;DHT22;4492;48.736;9.092;2023-03-24T07:57:37;11.40;99.90
8914;DHT22;4492;48.736;9.092;2023-03-24T08:00:06;11.40;99.90
8914;DHT22;4492;48.736;9.092;2023-03-24T08:02:43;11.40;99.90
8914;DHT22;4492;48.736;9.092;2023-03-24T08:05:09;11.50;99.90
8914;DHT22;4492;48.736;9.092;2023-03-24T08:07:35;11.50;99.90
8914;DHT22;4492;48.736;9.092;2023-03-24T08:10:01;11.50;99.90
8914;DHT22;4492;48.736;9.092;2023-03-24T08:12:26;11.50;99.90
8914;DHT22;4492;48.736;9.092;2023-03-24T08:14:52;11.50;99.90
8914;DHT22;4492;48.736;9.092;2023-03-24T08:17:17;11.60;99.90
8914;DHT22;4492;48.736;9.092;2023-03-24T08:19:43;11.60;99.90
8914;DHT22;4492;48.736;9.092;2023-03-24T08:22:08;11.60;99.90
8914;DHT22;4492;48.736;9.092;2023-03-24T08:24:34;11.70;99.90
8914;DHT22;4492;48.736;9.092;2023-03-24T08:27:01;11.70;99.90
8914;DHT22;4492;48.736;9.092;2023-03-24T08:29:31;11.70;99.90
8914;DHT22;4492;48.736;9.092;2023-03-24T08:31:59;11.80;99.90
8914;DHT22;4492;48.736;9.092;2023-03-24T08:34:25;11.90;99.90
8914;DHT22;4492;48.736;9.092;2023-03-24T08:36:51;11.90;99.90
8914;DHT22;4492;48.736;9.092;2023-03-24T08:39:16;11.90;99.90
8914;DHT22;4492;48.736;9.092;2023-03-24T08:41:42;11.90;99.90
8914;DHT22;4492;48.736;9.092;2023-03-24T08:44:07;11.80;99.90
8914;DHT22;4492;48.736;9.092;2023-03-24T08:46:34;11.80;99.90
8914;DHT22;4492;48.736;9.092;2023-03-24T08:49:01;11.90;99.90
8914;DHT22;4492;48.736;9.092;2023-03-24T08:51:27;11.90;99.90
8914;DHT22;4492;48.736;9.092;2023-03-24T08:53:52;12.00;99.90
8914;DHT22;4492;48.736;9.092;2023-03-24T08:56:20;12.10;99.90
8914;DHT22;4492;48.736;9.092;2023-03-24T08:58:46;12.30;99.90
8914;DHT22;4492;48.736;9.092;2023-03-24T09:01:16;12.40;99.90
8914;DHT22;4492;48.736;9.092;2023-03-24T09:03:42;12.50;99.90
8914;DHT22;4492;48.736;9.092;2023-03-24T09:06:09;12.60;99.90
8914;DHT22;4492;48.736;9.092;2023-03-24T09:08:35;12.60;99.90
8914;DHT22;4492;48.736;9.092;2023-03-24T09:11:01;12.60;99.90
8914;DHT22;4492;48.736;9.092;2023-03-24T09:13:26;12.60;99.90
8914;DHT22;4492;48.736;9.092;2023-03-24T09:15:56;12.60;99.90
8914;DHT22;4492;48.736;9.092;2023-03-24T09:18:22;12.50;99.90
8914;DHT22;4492;48.736;9.092;2023-03-24T09:20:48;12.60;99.90
8914;DHT22;4492;48.736;9.092;2023-03-24T09:23:14;12.80;99.90
8914;DHT22;4492;48.736;9.092;2023-03-24T09:25:40;12.80;99.90
8914;DHT22;4492;48.736;9.092;2023-03-24T09:28:05;12.90;99.90
8914;DHT22;4492;48.736;9.092;2023-03-24T09:30:32;12.90;99.90
8914;DHT22;4492;48.736;9.092;2023-03-24T09:32:58;12.90;99.90
8914;DHT22;4492;48.736;9.092;2023-03-24T09:35:25;12.90;99.90
8914;DHT22;4492;48.736;9.092;2023-03-24T09:37:52;12.90;99.90
8914;DHT22;4492;48.736;9.092;2023-03-24T09:40:23;13.00;99.90
8914;DHT22;4492;48.736;9.092;2023-03-24T09:43:03;13.30;99.90
8914;DHT22;4492;48.736;9.092;2023-03-24T09:45:33;13.60;99.90
8914;DHT22;4492;48.736;9.092;2023-03-24T09:48:07;13.80;99.90
8914;DHT22;4492;48.736;9.092;2023-03-24T09:50:50;13.90;99.90
8914;DHT22;4492;48.736;9.092;2023-03-24T09:53:28;14.00;99.90
8914;DHT22;4492;48.736;9.092;2023-03-24T09:56:11;14.10;99.90
8914;DHT22;4492;48.736;9.092;2023-03-24T09:58:37;13.90;99.90
8914;DHT22;4492;48.736;9.092;2023-03-24T10:01:14;14.10;99.90
8914;DHT22;4492;48.736;9.092;2023-03-24T10:03:44;14.10;99.90
8914;DHT22;4492;48.736;9.092;2023-03-24T10:06:16;14.40;99.90
8914;DHT22;4492;48.736;9.092;2023-03-24T10:08:50;14.80;99.90
8914;DHT22;4492;48.736;9.092;2023-03-24T10:11:40;15.10;99.90
8914;DHT22;4492;48.736;9.092;2023-03-24T10:14:22;15.30;99.90
8914;DHT22;4492;48.736;9.092;2023-03-24T10:17:19;15.20;99.90
8914;DHT22;4492;48.736;9.092;2023-03-24T10:19:57;15.00;99.90
8914;DHT22;4492;48.736;9.092;2023-03-24T10:22:31;14.90;99.90
8914;DHT22;4492;48.736;9.092;2023-03-24T10:25:31;14.90;99.90
8914;DHT22;4492;48.736;9.092;2023-03-24T10:28:20;15.10;99.90
8914;DHT22;4492;48.736;9.092;2023-03-24T10:30:49;15.30;99.90
8914;DHT22;4492;48.736;9.092;2023-03-24T10:33:16;15.40;99.90
8914;DHT22;4492;48.736;9.092;2023-03-24T10:38:21;15.50;99.90
8914;DHT22;4492;48.736;9.092;2023-03-24T10:40:48;15.40;99.90
8914;DHT22;4492;48.736;9.092;2023-03-24T10:43:16;15.40;99.90
8914;DHT22;4492;48.736;9.092;2023-03-24T10:45:46;15.40;99.90
8914;DHT22;4492;48.736;9.092;2023-03-24T10:48:13;15.40;99.90
8914;DHT22;4492;48.736;9.092;2023-03-24T10:50:43;15.50;99.90
8914;DHT22;4492;48.736;9.092;2023-03-24T10:53:19;15.60;99.90
8914;DHT22;4492;48.736;9.092;2023-03-24T10:55:46;15.60;99.90
8914;DHT22;4492;48.736;9.092;2023-03-24T10:58:36;15.50;99.90
8914;DHT22;4492;48.736;9.092;2023-03-24T11:01:09;15.30;99.90
8914;DHT22;4492;48.736;9.092;2023-03-24T11:03:45;15.30;99.90
8914;DHT22;4492;48.736;9.092;2023-03-24T11:06:15;15.20;99.90
8914;DHT22;4492;48.736;9.092;2023-03-24T11:08:42;15.20;99.90
8914;DHT22;4492;48.736;9.092;2023-03-24T11:11:34;15.10;99.90
8914;DHT22;4492;48.736;9.092;2023-03-24T11:14:01;15.30;99.90
8914;DHT22;4492;48.736;9.092;2023-03-24T11:19:02;15.50;99.90
8914;DHT22;4492;48.736;9.092;2023-03-24T11:21:30;15.40;99.90
8914;DHT22;4492;48.736;9.092;2023-03-24T11:23:58;15.60;99.90
8914;DHT22;4492;48.736;9.092;2023-03-24T11:26:34;15.70;99.90
8914;DHT22;4492;48.736;9.092;2023-03-24T11:29:03;15.70;99.90
8914;DHT22;4492;48.736;9.092;2023-03-24T11:31:33;15.70;99.90
8914;DHT22;4492;48.736;9.092;2023-03-24T11:34:21;16.00;99.90
8914;DHT22;4492;48.736;9.092;2023-03-24T11:36:57;16.30;99.90
8914;DHT22;4492;48.736;9.092;2023-03-24T11:39:29;16.40;99.90
8914;DHT22;4492;48.736;9.092;2023-03-24T11:47:12;15.50;99.90
8914;DHT22;4492;48.736;9.092;2023-03-24T11:49:45;15.30;99.90
8914;DHT22;4492;48.736;9.092;2023-03-24T11:52:32;15.30;99.90
8914;DHT22;4492;48.736;9.092;2023-03-24T11:55:00;15.30;99.90
8914;DHT22;4492;48.736;9.092;2023-03-24T12:00:26;15.40;99.90
8914;DHT22;4492;48.736;9.092;2023-03-24T12:05:45;15.20;99.60
8914;DHT22;4492;48.736;9.092;2023-03-24T12:09:15;15.00;99.90
8914;DHT22;4492;48.736;9.092;2023-03-24T12:11:45;15.00;99.90
8914;DHT22;4492;48.736;9.092;2023-03-24T12:14:18;15.10;99.70
8914;DHT22;4492;48.736;9.092;2023-03-24T12:17:16;15.30;99.00
8914;DHT22;4492;48.736;9.092;2023-03-24T12:20:01;15.20;99.00
8914;DHT22;4492;48.736;9.092;2023-03-24T12:26:01;14.90;99.50
8914;DHT22;4492;48.736;9.092;2023-03-24T12:39:34;15.60;98.10
8914;DHT22;4492;48.736;9.092;2023-03-24T12:42:17;15.40;98.60
8914;DHT22;4492;48.736;9.092;2023-03-24T12:55:43;14.50;99.90
8914;DHT22;4492;48.736;9.092;2023-03-24T12:58:25;14.50;99.90
8914;DHT22;4492;48.736;9.092;2023-03-24T13:01:47;14.60;99.90
8914;DHT22;4492;48.736;9.092;2023-03-24T13:04:17;14.60;99.90
8914;DHT22;4492;48.736;9.092;2023-03-24T13:06:51;14.90;99.90
8914;DHT22;4492;48.736;9.092;2023-03-24T13:14:28;15.00;99.90
8914;DHT22;4492;48.736;9.092;2023-03-24T13:17:02;14.80;99.90
8914;DHT22;4492;48.736;9.092;2023-03-24T13:19:29;14.70;99.90
8914;DHT22;4492;48.736;9.092;2023-03-24T13:21:56;14.60;99.90
8914;DHT22;4492;48.736;9.092;2023-03-24T13:24:23;14.40;99.90
8914;DHT22;4492;48.736;9.092;2023-03-24T13:27:13;14.30;99.90
8914;DHT22;4492;48.736;9.092;2023-03-24T13:37:55;13.90;99.90
8914;DHT22;4492;48.736;9.092;2023-03-24T13:40:25;13.90;99.90
8914;DHT22;4492;48.736;9.092;2023-03-24T13:42:57;13.90;99.90
8914;DHT22;4492;48.736;9.092;2023-03-24T13:50:37;13.80;99.90
8914;DHT22;4492;48.736;9.092;2023-03-24T13:53:12;13.70;99.90
8914;DHT22;4492;48.736;9.092;2023-03-24T13:55:38;13.80;99.90
8914;DHT22;4492;48.736;9.092;2023-03-24T13:58:21;13.90;99.90
8914;DHT22;4492;48.736;9.092;2023-03-24T14:03:39;14.10;99.90
8914;DHT22;4492;48.736;9.092;2023-03-24T14:06:06;14.30;99.90
8914;DHT22;4492;48.736;9.092;2023-03-24T14:14:27;14.50;99.90
8914;DHT22;4492;48.736;9.092;2023-03-24T14:17:15;14.40;99.90
8914;DHT22;4492;48.736;9.092;2023-03-24T14:19:42;14.10;99.90
8914;DHT22;4492;48.736;9.092;2023-03-24T14:24:35;13.80;99.90
8914;DHT22;4492;48.736;9.092;2023-03-24T14:32:53;13.40;99.90
8914;DHT22;4492;48.736;9.092;2023-03-24T14:35:37;13.40;99.90
8914;DHT22;4492;48.736;9.092;2023-03-24T14:40:46;13.30;99.90
8914;DHT22;4492;48.736;9.092;2023-03-24T14:46:00;13.30;99.90
8914;DHT22;4492;48.736;9.092;2023-03-24T14:48:39;13.20;99.90
8914;DHT22;4492;48.736;9.092;2023-03-24T14:54:10;13.10;99.90
8914;DHT22;4492;48.736;9.092;2023-03-24T14:56:39;13.00;99.90
8914;DHT22;4492;48.736;9.092;2023-03-24T15:02:04;12.90;99.90
8914;DHT22;4492;48.736;9.092;2023-03-24T15:04:35;12.70;99.90
8914;DHT22;4492;48.736;9.092;2023-03-24T15:07:03;12.40;99.90
8914;DHT22;4492;48.736;9.092;2023-03-24T15:09:30;12.20;99.90
8914;DHT22;4492;48.736;9.092;2023-03-24T15:11:59;12.00;99.90
8914;DHT22;4492;48.736;9.092;2023-03-24T15:14:26;11.80;99.90
8914;DHT22;4492;48.736;9.092;2023-03-24T15:17:07;11.70;99.90
8914;DHT22;4492;48.736;9.092;2023-03-24T15:19:34;11.60;99.90
8914;DHT22;4492;48.736;9.092;2023-03-24T15:22:05;11.60;99.90
8914;DHT22;4492;48.736;9.092;2023-03-24T15:24:36;11.50;99.90
8914;DHT22;4492;48.736;9.092;2023-03-24T15:29:38;11.30;99.90
8914;DHT22;4492;48.736;9.092;2023-03-24T15:32:04;11.30;99.90
8914;DHT22;4492;48.736;9.092;2023-03-24T15:34:35;11.20;99.90
8914;DHT22;4492;48.736;9.092;2023-03-24T15:37:05;11.20;99.90
8914;DHT22;4492;48.736;9.092;2023-03-24T15:39:34;11.10;99.90
8914;DHT22;4492;48.736;9.092;2023-03-24T15:42:07;11.20;99.90
8914;DHT22;4492;48.736;9.092;2023-03-24T15:44:38;11.10;99.90
8914;DHT22;4492;48.736;9.092;2023-03-24T15:47:19;11.10;99.90
8914;DHT22;4492;48.736;9.092;2023-03-24T15:49:53;11.10;99.90
8914;DHT22;4492;48.736;9.092;2023-03-24T15:52:23;11.00;99.90
8914;DHT22;4492;48.736;9.092;2023-03-24T15:54:51;11.00;99.90
8914;DHT22;4492;48.736;9.092;2023-03-24T15:57:21;11.00;99.90
8914;DHT22;4492;48.736;9.092;2023-03-24T16:02:42;10.90;99.90
8914;DHT22;4492;48.736;9.092;2023-03-24T16:05:24;11.00;99.90
8914;DHT22;4492;48.736;9.092;2023-03-24T16:08:20;11.20;99.90
8914;DHT22;4492;48.736;9.092;2023-03-24T16:13:23;11.40;99.90
8914;DHT22;4492;48.736;9.092;2023-03-24T16:15:57;11.40;99.90
8914;DHT22;4492;48.736;9.092;2023-03-24T16:20:51;11.30;99.90
8914;DHT22;4492;48.736;9.092;2023-03-24T16:23:17;11.30;99.90
8914;DHT22;4492;48.736;9.092;2023-03-24T16:25:43;11.30;99.90
8914;DHT22;4492;48.736;9.092;2023-03-24T16:28:13;11.20;99.90
8914;DHT22;4492;48.736;9.092;2023-03-24T16:30:41;11.20;99.90
8914;DHT22;4492;48.736;9.092;2023-03-24T16:33:07;11.20;99.90
8914;DHT22;4492;48.736;9.092;2023-03-24T16:35:33;11.30;99.90
8914;DHT22;4492;48.736;9.092;2023-03-24T16:37:59;11.50;99.90
8914;DHT22;4492;48.736;9.092;2023-03-24T16:40:38;11.60;99.90
8914;DHT22;4492;48.736;9.092;2023-03-24T16:43:04;11.60;99.90
8914;DHT22;4492;48.736;9.092;2023-03-24T16:45:30;11.80;99.90
8914;DHT22;4492;48.736;9.092;2023-03-24T16:47:57;11.90;99.90
8914;DHT22;4492;48.736;9.092;2023-03-24T16:50:44;11.90;99.90
8914;DHT22;4492;48.736;9.092;2023-03-24T16:53:10;11.80;99.90
8914;DHT22;4492;48.736;9.092;2023-03-24T16:55:37;11.70;99.90
8914;DHT22;4492;48.736;9.092;2023-03-24T16:58:03;11.50;99.90
8914;DHT22;4492;48.736;9.092;2023-03-24T17:00:29;11.40;99.90
8914;DHT22;4492;48.736;9.092;2023-03-24T17:02:55;11.30;99.90
8914;DHT22;4492;48.736;9.092;2023-03-24T17:05:27;11.20;99.90
8914;DHT22;4492;48.736;9.092;2023-03-24T17:07:54;11.00;99.90
8914;DHT22;4492;48.736;9.092;2023-03-24T17:10:20;10.90;99.90
8914;DHT22;4492;48.736;9.092;2023-03-24T17:12:47;10.80;99.90
8914;DHT22;4492;48.736;9.092;2023-03-24T17:15:22;10.70;99.90
8914;DHT22;4492;48.736;9.092;2023-03-24T17:17:47;10.60;99.90
8914;DHT22;4492;48.736;9.092;2023-03-24T17:20:13;10.50;99.90
8914;DHT22;4492;48.736;9.092;2023-03-24T17:22:41;10.40;99.90
8914;DHT22;4492;48.736;9.092;2023-03-24T17:25:09;10.30;99.90
8914;DHT22;4492;48.736;9.092;2023-03-24T17:27:34;10.30;99.90
8914;DHT22;4492;48.736;9.092;2023-03-24T17:30:00;10.20;99.90
8914;DHT22;4492;48.736;9.092;2023-03-24T17:32:30;10.20;99.90
8914;DHT22;4492;48.736;9.092;2023-03-24T17:34:57;10.10;99.90
8914;DHT22;4492;48.736;9.092;2023-03-24T17:37:23;10.10;99.90
8914;DHT22;4492;48.736;9.092;2023-03-24T17:39:50;10.10;99.90
8914;DHT22;4492;48.736;9.092;2023-03-24T17:42:15;10.00;99.90
8914;DHT22;4492;48.736;9.092;2023-03-24T17:44:41;9.90;99.90
8914;DHT22;4492;48.736;9.092;2023-03-24T17:47:07;9.80;99.90
8914;DHT22;4492;48.736;9.092;2023-03-24T17:49:32;9.70;99.90
8914;DHT22;4492;48.736;9.092;2023-03-24T17:51:58;9.70;99.90
8914;DHT22;4492;48.736;9.092;2023-03-24T17:54:23;9.60;99.90
8914;DHT22;4492;48.736;9.092;2023-03-24T17:56:50;9.50;99.90
8914;DHT22;4492;48.736;9.092;2023-03-24T17:59:16;9.50;99.90
8914;DHT22;4492;48.736;9.092;2023-03-24T18:01:41;9.40;99.90
8914;DHT22;4492;48.736;9.092;2023-03-24T18:04:07;9.50;99.90
8914;DHT22;4492;48.736;9.092;2023-03-24T18:06:33;9.40;99.90
8914;DHT22;4492;48.736;9.092;2023-03-24T18:08:58;9.40;99.90
8914;DHT22;4492;48.736;9.092;2023-03-24T18:11:24;9.30;99.90
8914;DHT22;4492;48.736;9.092;2023-03-24T18:13:50;9.40;99.90
8914;DHT22;4492;48.736;9.092;2023-03-24T18:16:16;9.30;99.90
8914;DHT22;4492;48.736;9.092;2023-03-24T18:18:42;9.30;99.90
8914;DHT22;4492;48.736;9.092;2023-03-24T18:21:10;9.30;99.90
8914;DHT22;4492;48.736;9.092;2023-03-24T18:23:37;9.20;99.90
8914;DHT22;4492;48.736;9.092;2023-03-24T18:26:06;9.20;99.90
8914;DHT22;4492;48.736;9.092;2023-03-24T18:28:33;9.20;99.90
8914;DHT22;4492;48.736;9.092;2023-03-24T18:30:59;9.10;99.90
8914;DHT22;4492;48.736;9.092;2023-03-24T18:33:25;9.10;99.90
8914;DHT22;4492;48.736;9.092;2023-03-24T18:35:56;9.10;99.90